Piet — A8WG6 — position and weather

sailwx.info

Track history (hours):
 
Tides and Currents Weather Stations Pressure Air Temp Water Temp Dewpoint Dewpoint Depression Visibility Wind Speed Wind Dir Waves Ship Positions

Piet

Last reported at 2018-May-24 05:59 UTC. Time now 2018-Jun-18 18:56 UTC.
Position N 36°28' E 014°34'.
Warning: this ship's position is 25 days out of date.

Length 229 m; draft 14 m.

Type: Ship. MMSI: 636092074.

Date/timePositionNaut miles runAvg speedWind from/ knotsBaromVisibWave heightAir tempDewpointWater temp
2018-May-24 05:59N 36°28' E 014°34'713.4
2018-May-24 05:30N 36°30' E 014°26'713.2
2018-May-24 05:00N 36°32' E 014°19'713.2
2018-May-24 04:30N 36°34' E 014°11'713.2
2018-May-24 04:00N 36°37' E 014°03'713.3
2018-May-24 03:30N 36°39' E 013°55'713.3
2018-May-24 03:00N 36°41' E 013°47'713.2
2018-May-24 02:27N 36°43' E 013°39'63913.4
2018-May-22 02:37N 36°41' E 000°22'5012.8
2018-May-21 22:43N 36°33' W 000°40'312.9
2018-May-21 22:30N 36°32' W 000°43'2812.8
2018-May-21 20:18N 36°28' W 001°18'512.9
2018-May-21 19:57N 36°28' W 001°23'18312.9
2018-May-21 05:47N 36°01' W 005°08'414.4
2018-May-21 05:30N 36°01' W 005°13'714.2
2018-May-21 05:00N 35°59' W 005°21'713.2
2018-May-21 04:30N 35°57' W 005°29'611.8
2018-May-21 03:58N 35°55' W 005°36'510.4
2018-May-21 03:30N 35°54' W 005°42'5 9.9
2018-May-21 03:00N 35°54' W 005°48'610.8
2018-May-21 02:28N 35°53' W 005°56'9112.1
2018-May-20 18:57N 36°11' W 007°46'614.1
2018-May-20 18:30N 36°13' W 007°53'713.9
2018-May-20 18:00N 36°15' W 008°02'2214.1
2018-May-20 16:25N 36°22' W 008°28'614.0
2018-May-20 16:00N 36°23' W 008°35'714.1
2018-May-20 15:30N 36°25' W 008°44'714.0
2018-May-20 15:00N 36°27' W 008°52'714.0
2018-May-20 14:30N 36°29' W 009°00'813.9
2018-May-20 13:57N 36°31' W 009°09'613.5
2018-May-20 13:30N 36°33' W 009°17'4813.2
2018-May-20 09:54N 37°16' W 009°42'1013.7
2018-May-20 09:11N 37°26' W 009°44'213.5
2018-May-20 09:00N 37°28' W 009°45'713.6
2018-May-20 08:30N 37°35' W 009°47'713.3
2018-May-20 08:00N 37°41' W 009°49'713.3
2018-May-20 07:30N 37°48' W 009°51'713.5
2018-May-20 07:00N 37°54' W 009°53'713.6
2018-May-20 06:30N 38°01' W 009°55'713.5
2018-May-20 06:00N 38°08' W 009°57'713.2
2018-May-20 05:30N 38°14' W 009°60'713.6
2018-May-20 05:00N 38°20' W 010°02'713.7
2018-May-20 04:30N 38°27' W 010°03'713.8
2018-May-20 04:00N 38°34' W 010°04'713.9
2018-May-20 03:30N 38°41' W 010°06'713.6
2018-May-20 03:00N 38°48' W 010°06'713.7
2018-May-20 02:31N 38°55' W 010°06'713.5
2018-May-20 02:00N 39°01' W 010°06'713.9
2018-May-20 01:30N 39°08' W 010°06'713.9
2018-May-20 01:00N 39°15' W 010°06'52313.4
2018-May-18 09:58N 47°38' W 006°50'1514.9
2018-May-18 08:59N 47°51' W 006°38'1414.4
2018-May-18 07:58N 48°03' W 006°28'713.8
2018-May-18 07:30N 48°09' W 006°23'713.4
2018-May-18 07:00N 48°15' W 006°18'612.9
2018-May-18 06:30N 48°20' W 006°14'612.5
2018-May-18 06:01N 48°26' W 006°09'612.0
2018-May-18 05:30N 48°31' W 006°05'611.9
2018-May-18 05:00N 48°37' W 006°01'611.8
2018-May-18 04:30N 48°42' W 005°57'611.9
2018-May-18 04:01N 48°47' W 005°52'612.1
2018-May-18 03:31N 48°52' W 005°48'612.4
2018-May-18 03:00N 48°56' W 005°41'713.3
2018-May-18 02:31N 48°60' W 005°32'714.0
2018-May-18 02:01N 49°03' W 005°23'714.3
2018-May-18 01:31N 49°07' W 005°13'714.7
2018-May-18 01:01N 49°11' W 005°04'714.3
2018-May-18 00:30N 49°14' W 004°55'713.7
2018-May-18 00:00N 49°18' W 004°45'713.2
2018-May-17 23:30N 49°21' W 004°36'612.9
2018-May-17 23:00N 49°24' W 004°28'612.5
2018-May-17 22:30N 49°27' W 004°19'612.1
2018-May-17 22:00N 49°30' W 004°11'611.5
2018-May-17 21:30N 49°33' W 004°04'510.9
2018-May-17 21:00N 49°36' W 003°56'510.3
2018-May-17 20:30N 49°38' W 003°49'7 9.8
2018-May-17 19:48N 49°42' W 003°40'3 9.5
2018-May-17 19:30N 49°43' W 003°36'6 9.6
2018-May-17 18:50N 49°46' W 003°28'3 9.8
2018-May-17 18:30N 49°48' W 003°23'510.0
2018-May-17 18:00N 49°50' W 003°17'510.5
2018-May-17 17:29N 49°53' W 003°10'611.3
2018-May-17 17:00N 49°56' W 003°02'812.2
2018-May-17 16:21N 49°59' W 002°51'613.3
2018-May-17 15:54N 50°01' W 002°42'614.0
2018-May-17 15:29N 50°02' W 002°33'714.7
2018-May-17 14:59N 50°04' W 002°22'915.3
2018-May-17 14:23N 50°07' W 002°09'614.9
2018-May-17 14:00N 50°08' W 002°00'714.3
2018-May-17 13:30N 50°11' W 001°49'713.3
2018-May-17 13:00N 50°13' W 001°39'612.3
2018-May-17 12:30N 50°14' W 001°30'611.1
2018-May-17 12:00N 50°16' W 001°22'510.2
2018-May-17 11:30N 50°17' W 001°14'5 9.4
2018-May-17 11:00N 50°18' W 001°07'4 8.4
2018-May-17 10:30N 50°19' W 001°01'4 8.0
2018-May-17 10:00N 50°21' W 000°55'4 7.7
2018-May-17 09:30N 50°21' W 000°49'4 8.0
2018-May-17 08:58N 50°22' W 000°42'4 8.3
2018-May-17 08:29N 50°24' W 000°36'4 9.1
2018-May-17 08:00N 50°25' W 000°30'510.1
2018-May-17 07:30N 50°26' W 000°22'611.0
2018-May-17 07:00N 50°28' W 000°14'611.9
2018-May-17 06:30N 50°30' W 000°05'612.5
2018-May-17 06:00N 50°31' E 000°05'713.0
2018-May-17 05:30N 50°33' E 000°14'713.2
2018-May-17 05:00N 50°35' E 000°24'713.0
2018-May-17 04:30N 50°37' E 000°34'612.6
2018-May-17 04:00N 50°39' E 000°43'612.2
2018-May-17 03:30N 50°42' E 000°52'611.7
2018-May-17 03:00N 50°46' E 000°59'611.2
2018-May-17 02:30N 50°49' E 001°07'510.4
2018-May-17 02:00N 50°52' E 001°13'7 9.4
2018-May-17 01:15N 50°57' E 001°21'2 9.0
2018-May-17 01:00N 50°59' E 001°24'5 9.2
2018-May-17 00:30N 51°02' E 001°29'5 9.8
2018-May-17 00:01N 51°05' E 001°34'5 9.9
2018-May-16 23:31N 51°09' E 001°39'510.7
2018-May-16 23:01N 51°13' E 001°45'612.0
2018-May-16 22:30N 51°18' E 001°50'713.1
2018-May-16 22:01N 51°24' E 001°54'713.5
2018-May-16 21:31N 51°30' E 002°01'713.5
2018-May-16 21:00N 51°35' E 002°08'713.6
2018-May-16 20:31N 51°40' E 002°15'713.3
2018-May-16 20:00N 51°45' E 002°22'712.8
2018-May-16 19:28N 51°50' E 002°29'612.2
2018-May-16 18:59N 51°55' E 002°36'611.6
2018-May-16 18:30N 52°00' E 002°37'511.0
2018-May-16 18:00N 52°05' E 002°39'510.5
2018-May-16 17:31N 52°11' E 002°40'510.0
2018-May-16 17:00N 52°15' E 002°43'5 9.8
2018-May-16 16:31N 52°20' E 002°46'5 9.6
2018-May-16 16:00N 52°24' E 002°49'5 9.6
2018-May-16 15:31N 52°29' E 002°52'5 9.5
2018-May-16 15:00N 52°33' E 002°55'6 9.5
2018-May-16 14:22N 52°38' E 003°01'410.0
2018-May-16 14:00N 52°41' E 003°04'510.6
2018-May-16 13:30N 52°46' E 003°08'611.2
2018-May-16 13:00N 52°51' E 003°12'5612.1
2018-May-16 08:22N 53°44' E 003°42'5011.2
2018-May-16 03:53N 54°19' E 004°44'2412.2
2018-May-16 01:54N 54°39' E 005°07'18011.6
2018-May-15 10:26N 57°16' E 007°43'511.6
2018-May-15 10:00N 57°18' E 007°51'1411.4
2018-May-15 08:47N 57°24' E 008°15'311.3
2018-May-15 08:30N 57°25' E 008°21'611.3
2018-May-15 07:59N 57°28' E 008°30'611.9
2018-May-15 07:30N 57°30' E 008°40'613.1
2018-May-15 07:00N 57°33' E 008°51'611.7
2018-May-15 06:30N 57°35' E 009°01'511.0
2018-May-15 06:00N 57°37' E 009°10'611.1
2018-May-15 05:30N 57°40' E 009°20'611.2
2018-May-15 05:00N 57°42' E 009°29'611.3
2018-May-15 04:30N 57°44' E 009°39'611.2
2018-May-15 04:00N 57°47' E 009°48'611.2
2018-May-15 03:30N 57°48' E 009°59'611.2
2018-May-15 03:00N 57°48' E 010°09'611.4
2018-May-15 02:30N 57°49' E 010°20'611.3
2018-May-15 02:00N 57°49' E 010°31'611.5
2018-May-15 01:30N 57°49' E 010°41'611.3
2018-May-15 01:00N 57°46' E 010°51'510.9
2018-May-15 00:30N 57°43' E 010°58'611.4
2018-May-15 00:00N 57°38' E 011°05'611.6
2018-May-14 23:30N 57°34' E 011°13'611.4
2018-May-14 23:00N 57°30' E 011°21'510.7
2018-May-14 22:30N 57°26' E 011°27'611.1
2018-May-14 22:00N 57°21' E 011°31'510.9
2018-May-14 21:30N 57°16' E 011°34'510.6
2018-May-14 21:00N 57°11' E 011°37'510.5
2018-May-14 20:30N 57°06' E 011°40'510.3
2018-May-14 20:00N 57°01' E 011°44'510.4
2018-May-14 19:30N 56°56' E 011°46'610.3
2018-May-14 18:57N 56°51' E 011°50'94 9.6
2018-May-14 09:10N 55°21' E 011°02'211.3
2018-May-14 09:00N 55°19' E 011°02'510.9
2018-May-14 08:30N 55°14' E 011°06'5 9.5
2018-May-14 08:00N 55°10' E 011°01'510.1
2018-May-14 07:31N 55°05' E 010°59'611.2
2018-May-14 07:00N 54°59' E 010°59'510.5
2018-May-14 06:30N 54°55' E 010°53'510.6
2018-May-14 06:00N 54°50' E 010°50'  
Track history (hours):
 
Tides and Currents Weather Stations Pressure Air Temp Water Temp Dewpoint Dewpoint Depression Visibility Wind Speed Wind Dir Waves Ship Positions

Piet

Last reported at 2018-May-24 05:59 UTC. Time now 2018-Jun-18 18:56 UTC.
Position N 36°28' E 014°34'.
Warning: this ship's position is 25 days out of date.

Length 229 m; draft 14 m.

Type: Ship. MMSI: 636092074.

Date/timePositionNaut miles runAvg speedWind from/ knotsBaromVisibWave heightAir tempDewpointWater temp
2018-May-24 05:59N 36°28' E 014°34'713.4
2018-May-24 05:30N 36°30' E 014°26'713.2
2018-May-24 05:00N 36°32' E 014°19'713.2
2018-May-24 04:30N 36°34' E 014°11'713.2
2018-May-24 04:00N 36°37' E 014°03'713.3
2018-May-24 03:30N 36°39' E 013°55'713.3
2018-May-24 03:00N 36°41' E 013°47'713.2
2018-May-24 02:27N 36°43' E 013°39'63913.4
2018-May-22 02:37N 36°41' E 000°22'5012.8
2018-May-21 22:43N 36°33' W 000°40'312.9
2018-May-21 22:30N 36°32' W 000°43'2812.8
2018-May-21 20:18N 36°28' W 001°18'512.9
2018-May-21 19:57N 36°28' W 001°23'18312.9
2018-May-21 05:47N 36°01' W 005°08'414.4
2018-May-21 05:30N 36°01' W 005°13'714.2
2018-May-21 05:00N 35°59' W 005°21'713.2
2018-May-21 04:30N 35°57' W 005°29'611.8
2018-May-21 03:58N 35°55' W 005°36'510.4
2018-May-21 03:30N 35°54' W 005°42'5 9.9
2018-May-21 03:00N 35°54' W 005°48'610.8
2018-May-21 02:28N 35°53' W 005°56'9112.1
2018-May-20 18:57N 36°11' W 007°46'614.1
2018-May-20 18:30N 36°13' W 007°53'713.9
2018-May-20 18:00N 36°15' W 008°02'2214.1
2018-May-20 16:25N 36°22' W 008°28'614.0
2018-May-20 16:00N 36°23' W 008°35'714.1
2018-May-20 15:30N 36°25' W 008°44'714.0
2018-May-20 15:00N 36°27' W 008°52'714.0
2018-May-20 14:30N 36°29' W 009°00'813.9
2018-May-20 13:57N 36°31' W 009°09'613.5
2018-May-20 13:30N 36°33' W 009°17'4813.2
2018-May-20 09:54N 37°16' W 009°42'1013.7
2018-May-20 09:11N 37°26' W 009°44'213.5
2018-May-20 09:00N 37°28' W 009°45'713.6
2018-May-20 08:30N 37°35' W 009°47'713.3
2018-May-20 08:00N 37°41' W 009°49'713.3
2018-May-20 07:30N 37°48' W 009°51'713.5
2018-May-20 07:00N 37°54' W 009°53'713.6
2018-May-20 06:30N 38°01' W 009°55'713.5
2018-May-20 06:00N 38°08' W 009°57'713.2
2018-May-20 05:30N 38°14' W 009°60'713.6
2018-May-20 05:00N 38°20' W 010°02'713.7
2018-May-20 04:30N 38°27' W 010°03'713.8
2018-May-20 04:00N 38°34' W 010°04'713.9
2018-May-20 03:30N 38°41' W 010°06'713.6
2018-May-20 03:00N 38°48' W 010°06'713.7
2018-May-20 02:31N 38°55' W 010°06'713.5
2018-May-20 02:00N 39°01' W 010°06'713.9
2018-May-20 01:30N 39°08' W 010°06'713.9
2018-May-20 01:00N 39°15' W 010°06'52313.4
2018-May-18 09:58N 47°38' W 006°50'1514.9
2018-May-18 08:59N 47°51' W 006°38'1414.4
2018-May-18 07:58N 48°03' W 006°28'713.8
2018-May-18 07:30N 48°09' W 006°23'713.4
2018-May-18 07:00N 48°15' W 006°18'612.9
2018-May-18 06:30N 48°20' W 006°14'612.5
2018-May-18 06:01N 48°26' W 006°09'612.0
2018-May-18 05:30N 48°31' W 006°05'611.9
2018-May-18 05:00N 48°37' W 006°01'611.8
2018-May-18 04:30N 48°42' W 005°57'611.9
2018-May-18 04:01N 48°47' W 005°52'612.1
2018-May-18 03:31N 48°52' W 005°48'612.4
2018-May-18 03:00N 48°56' W 005°41'713.3
2018-May-18 02:31N 48°60' W 005°32'714.0
2018-May-18 02:01N 49°03' W 005°23'714.3
2018-May-18 01:31N 49°07' W 005°13'714.7
2018-May-18 01:01N 49°11' W 005°04'714.3
2018-May-18 00:30N 49°14' W 004°55'713.7
2018-May-18 00:00N 49°18' W 004°45'713.2
2018-May-17 23:30N 49°21' W 004°36'612.9
2018-May-17 23:00N 49°24' W 004°28'612.5
2018-May-17 22:30N 49°27' W 004°19'612.1
2018-May-17 22:00N 49°30' W 004°11'611.5
2018-May-17 21:30N 49°33' W 004°04'510.9
2018-May-17 21:00N 49°36' W 003°56'510.3
2018-May-17 20:30N 49°38' W 003°49'7 9.8
2018-May-17 19:48N 49°42' W 003°40'3 9.5
2018-May-17 19:30N 49°43' W 003°36'6 9.6
2018-May-17 18:50N 49°46' W 003°28'3 9.8
2018-May-17 18:30N 49°48' W 003°23'510.0
2018-May-17 18:00N 49°50' W 003°17'510.5
2018-May-17 17:29N 49°53' W 003°10'611.3
2018-May-17 17:00N 49°56' W 003°02'812.2
2018-May-17 16:21N 49°59' W 002°51'613.3
2018-May-17 15:54N 50°01' W 002°42'614.0
2018-May-17 15:29N 50°02' W 002°33'714.7
2018-May-17 14:59N 50°04' W 002°22'915.3
2018-May-17 14:23N 50°07' W 002°09'614.9
2018-May-17 14:00N 50°08' W 002°00'714.3
2018-May-17 13:30N 50°11' W 001°49'713.3
2018-May-17 13:00N 50°13' W 001°39'612.3
2018-May-17 12:30N 50°14' W 001°30'611.1
2018-May-17 12:00N 50°16' W 001°22'510.2
2018-May-17 11:30N 50°17' W 001°14'5 9.4
2018-May-17 11:00N 50°18' W 001°07'4 8.4
2018-May-17 10:30N 50°19' W 001°01'4 8.0
2018-May-17 10:00N 50°21' W 000°55'4 7.7
2018-May-17 09:30N 50°21' W 000°49'4 8.0
2018-May-17 08:58N 50°22' W 000°42'4 8.3
2018-May-17 08:29N 50°24' W 000°36'4 9.1
2018-May-17 08:00N 50°25' W 000°30'510.1
2018-May-17 07:30N 50°26' W 000°22'611.0
2018-May-17 07:00N 50°28' W 000°14'611.9
2018-May-17 06:30N 50°30' W 000°05'612.5
2018-May-17 06:00N 50°31' E 000°05'713.0
2018-May-17 05:30N 50°33' E 000°14'713.2
2018-May-17 05:00N 50°35' E 000°24'713.0
2018-May-17 04:30N 50°37' E 000°34'612.6
2018-May-17 04:00N 50°39' E 000°43'612.2
2018-May-17 03:30N 50°42' E 000°52'611.7
2018-May-17 03:00N 50°46' E 000°59'611.2
2018-May-17 02:30N 50°49' E 001°07'510.4
2018-May-17 02:00N 50°52' E 001°13'7 9.4
2018-May-17 01:15N 50°57' E 001°21'2 9.0
2018-May-17 01:00N 50°59' E 001°24'5 9.2
2018-May-17 00:30N 51°02' E 001°29'5 9.8
2018-May-17 00:01N 51°05' E 001°34'5 9.9
2018-May-16 23:31N 51°09' E 001°39'510.7
2018-May-16 23:01N 51°13' E 001°45'612.0
2018-May-16 22:30N 51°18' E 001°50'713.1
2018-May-16 22:01N 51°24' E 001°54'713.5
2018-May-16 21:31N 51°30' E 002°01'713.5
2018-May-16 21:00N 51°35' E 002°08'713.6
2018-May-16 20:31N 51°40' E 002°15'713.3
2018-May-16 20:00N 51°45' E 002°22'712.8
2018-May-16 19:28N 51°50' E 002°29'612.2
2018-May-16 18:59N 51°55' E 002°36'611.6
2018-May-16 18:30N 52°00' E 002°37'511.0
2018-May-16 18:00N 52°05' E 002°39'510.5
2018-May-16 17:31N 52°11' E 002°40'510.0
2018-May-16 17:00N 52°15' E 002°43'5 9.8
2018-May-16 16:31N 52°20' E 002°46'5 9.6
2018-May-16 16:00N 52°24' E 002°49'5 9.6
2018-May-16 15:31N 52°29' E 002°52'5 9.5
2018-May-16 15:00N 52°33' E 002°55'6 9.5
2018-May-16 14:22N 52°38' E 003°01'410.0
2018-May-16 14:00N 52°41' E 003°04'510.6
2018-May-16 13:30N 52°46' E 003°08'611.2
2018-May-16 13:00N 52°51' E 003°12'5612.1
2018-May-16 08:22N 53°44' E 003°42'5011.2
2018-May-16 03:53N 54°19' E 004°44'2412.2
2018-May-16 01:54N 54°39' E 005°07'18011.6
2018-May-15 10:26N 57°16' E 007°43'511.6
2018-May-15 10:00N 57°18' E 007°51'1411.4
2018-May-15 08:47N 57°24' E 008°15'311.3
2018-May-15 08:30N 57°25' E 008°21'611.3
2018-May-15 07:59N 57°28' E 008°30'611.9
2018-May-15 07:30N 57°30' E 008°40'613.1
2018-May-15 07:00N 57°33' E 008°51'611.7
2018-May-15 06:30N 57°35' E 009°01'511.0
2018-May-15 06:00N 57°37' E 009°10'611.1
2018-May-15 05:30N 57°40' E 009°20'611.2
2018-May-15 05:00N 57°42' E 009°29'611.3
2018-May-15 04:30N 57°44' E 009°39'611.2
2018-May-15 04:00N 57°47' E 009°48'611.2
2018-May-15 03:30N 57°48' E 009°59'611.2
2018-May-15 03:00N 57°48' E 010°09'611.4
2018-May-15 02:30N 57°49' E 010°20'611.3
2018-May-15 02:00N 57°49' E 010°31'611.5
2018-May-15 01:30N 57°49' E 010°41'611.3
2018-May-15 01:00N 57°46' E 010°51'510.9
2018-May-15 00:30N 57°43' E 010°58'611.4
2018-May-15 00:00N 57°38' E 011°05'611.6
2018-May-14 23:30N 57°34' E 011°13'611.4
2018-May-14 23:00N 57°30' E 011°21'510.7
2018-May-14 22:30N 57°26' E 011°27'611.1
2018-May-14 22:00N 57°21' E 011°31'510.9
2018-May-14 21:30N 57°16' E 011°34'510.6
2018-May-14 21:00N 57°11' E 011°37'510.5
2018-May-14 20:30N 57°06' E 011°40'510.3
2018-May-14 20:00N 57°01' E 011°44'510.4
2018-May-14 19:30N 56°56' E 011°46'610.3
2018-May-14 18:57N 56°51' E 011°50'94 9.6
2018-May-14 09:10N 55°21' E 011°02'211.3
2018-May-14 09:00N 55°19' E 011°02'510.9
2018-May-14 08:30N 55°14' E 011°06'5 9.5
2018-May-14 08:00N 55°10' E 011°01'510.1
2018-May-14 07:31N 55°05' E 010°59'611.2
2018-May-14 07:00N 54°59' E 010°59'510.5
2018-May-14 06:30N 54°55' E 010°53'510.6
2018-May-14 06:00N 54°50' E 010°50'  

Dump ship's entire track history